createdAt,value
2019-03-19T00:01:35.120Z,2.10
2019-03-19T00:07:39.822Z,2.27
2019-03-19T00:13:44.384Z,2.27
2019-03-19T00:19:49.026Z,2.60
2019-03-19T00:25:53.581Z,3.07
2019-03-19T00:31:58.133Z,3.00
2019-03-19T00:38:03.249Z,2.50
2019-03-19T00:44:07.812Z,2.57
2019-03-19T00:50:16.831Z,3.57
2019-03-19T00:56:21.368Z,2.87
2019-03-19T01:02:25.926Z,2.73
2019-03-19T01:08:30.479Z,2.33
2019-03-19T01:14:35.023Z,2.53
2019-03-19T01:20:39.649Z,3.20
2019-03-19T01:26:44.214Z,2.83
2019-03-19T01:32:48.765Z,3.17
2019-03-19T01:38:53.343Z,3.17
2019-03-19T01:44:57.914Z,3.50
2019-03-19T01:51:02.479Z,3.20
2019-03-19T01:57:07.113Z,2.83
2019-03-19T02:03:11.675Z,2.90
2019-03-19T02:09:16.299Z,3.40
2019-03-19T02:15:20.882Z,5.40
2019-03-19T02:21:25.499Z,2.93
2019-03-19T02:27:30.071Z,2.87
2019-03-19T02:33:34.654Z,3.40
2019-03-19T02:39:39.212Z,4.20
2019-03-19T02:45:43.797Z,4.27
2019-03-19T02:51:48.339Z,3.60
2019-03-19T02:57:52.910Z,4.50
2019-03-19T03:03:57.455Z,3.43
2019-03-19T03:10:02.092Z,4.10
2019-03-19T03:16:06.653Z,3.90
2019-03-19T03:22:11.209Z,3.43
2019-03-19T03:28:15.775Z,4.60
2019-03-19T03:34:20.325Z,3.00
2019-03-19T03:40:24.953Z,3.67
2019-03-19T03:46:29.533Z,3.57
2019-03-19T03:52:34.959Z,2.90
2019-03-19T03:58:39.584Z,3.77
2019-03-19T04:04:45.494Z,3.90
2019-03-19T04:10:50.059Z,3.53
2019-03-19T04:16:54.735Z,3.83
2019-03-19T04:22:59.309Z,3.23
2019-03-19T04:29:03.946Z,3.30
2019-03-19T04:35:08.958Z,3.07
2019-03-19T04:41:13.522Z,3.57
2019-03-19T04:47:18.082Z,3.90
2019-03-19T04:53:24.271Z,3.77
2019-03-19T04:59:29.082Z,4.20
2019-03-19T05:05:35.099Z,4.27
2019-03-19T05:11:39.789Z,4.13
2019-03-19T05:17:44.420Z,4.43
2019-03-19T05:23:49.002Z,5.57
2019-03-19T05:29:53.627Z,4.27
2019-03-19T05:35:58.195Z,5.27
2019-03-19T05:42:03.853Z,5.10
2019-03-19T05:48:08.500Z,3.80
2019-03-19T05:54:13.069Z,4.50
2019-03-19T06:00:20.777Z,4.43
2019-03-19T06:06:25.368Z,4.03
2019-03-19T06:12:30.086Z,4.33
2019-03-19T06:18:35.607Z,5.50
2019-03-19T06:24:40.332Z,4.53
2019-03-19T06:30:44.885Z,5.13
2019-03-19T06:36:49.462Z,5.50
2019-03-19T06:42:54.029Z,6.30
2019-03-19T06:48:58.597Z,5.07
2019-03-19T06:55:03.155Z,5.47
2019-03-19T07:01:07.743Z,6.90
2019-03-19T07:07:12.275Z,5.43
2019-03-19T07:13:16.861Z,5.07
2019-03-19T07:19:21.425Z,5.13
2019-03-19T07:25:26.056Z,6.33
2019-03-19T07:31:31.337Z,5.03
2019-03-19T07:37:36.128Z,5.63
2019-03-19T07:43:40.694Z,4.90
2019-03-19T07:49:45.262Z,8.50
2019-03-19T07:55:49.901Z,6.23
2019-03-19T08:01:54.457Z,4.40
2019-03-19T08:07:59.005Z,4.80
2019-03-19T08:14:03.649Z,4.43
2019-03-19T08:20:12.395Z,5.30
2019-03-19T08:26:17.020Z,5.20
2019-03-19T08:32:21.768Z,5.30
2019-03-19T08:38:26.575Z,4.30
2019-03-19T08:44:31.268Z,4.70
2019-03-19T08:50:35.877Z,5.13
2019-03-19T08:56:40.436Z,4.50
2019-03-19T09:02:44.998Z,3.80
2019-03-19T09:08:50.393Z,4.00
2019-03-19T09:14:55.205Z,3.57
2019-03-19T09:20:59.782Z,4.47
2019-03-19T09:27:04.508Z,4.57
2019-03-19T09:33:10.723Z,3.17
2019-03-19T09:39:15.286Z,4.03
2019-03-19T09:45:19.991Z,4.20
2019-03-19T09:51:24.616Z,11.07
2019-03-19T09:57:29.261Z,3.83
2019-03-19T10:03:33.815Z,3.60
2019-03-19T10:09:38.471Z,3.00
2019-03-19T10:15:43.027Z,3.30
2019-03-19T10:21:47.593Z,3.50
2019-03-19T10:27:52.250Z,3.20
2019-03-19T10:33:56.837Z,3.10
2019-03-19T10:40:01.414Z,3.47
2019-03-19T10:46:06.077Z,2.87
2019-03-19T10:52:10.704Z,2.87
2019-03-19T10:58:15.287Z,2.37
2019-03-19T11:04:19.993Z,2.33
2019-03-19T11:10:24.645Z,2.17
2019-03-19T11:16:29.283Z,2.57
2019-03-19T11:22:33.859Z,2.90
2019-03-19T11:28:38.442Z,2.20
2019-03-19T11:34:43.097Z,1.50
2019-03-19T11:40:47.675Z,1.93
2019-03-19T11:46:53.590Z,4.60
2019-03-19T11:52:58.483Z,2.10
2019-03-19T11:59:03.186Z,1.87
2019-03-19T12:05:09.846Z,1.60
2019-03-19T12:11:14.415Z,1.53
2019-03-19T12:17:18.973Z,1.40
2019-03-19T12:23:23.547Z,1.43
2019-03-19T12:29:28.157Z,1.67
2019-03-19T12:35:35.636Z,1.30
2019-03-19T12:41:40.272Z,1.80
2019-03-19T12:47:45.500Z,1.90
2019-03-19T12:53:50.061Z,1.80
2019-03-19T12:59:54.717Z,1.50
2019-03-19T13:05:59.419Z,1.50
2019-03-19T13:12:04.081Z,1.93
2019-03-19T13:18:08.768Z,1.50
2019-03-19T13:24:13.329Z,1.53
2019-03-19T13:30:27.392Z,2.10
2019-03-19T13:36:32.062Z,1.80
2019-03-19T13:42:36.590Z,2.03
2019-03-19T13:48:41.157Z,2.10
2019-03-19T13:54:45.735Z,2.37
2019-03-19T14:00:55.570Z,1.50
2019-03-19T14:06:56.672Z,1.73
2019-03-19T14:13:01.335Z,1.87
2019-03-19T14:19:06.054Z,2.97
2019-03-19T14:25:12.907Z,2.40
2019-03-19T14:31:17.484Z,2.47
2019-03-19T14:37:22.032Z,2.30
2019-03-19T14:43:26.595Z,1.70
2019-03-19T14:49:31.227Z,1.73
2019-03-19T14:55:35.925Z,2.20
2019-03-19T15:01:40.497Z,2.20
2019-03-19T15:07:45.237Z,2.83
2019-03-19T15:13:50.839Z,1.70
2019-03-19T15:19:55.421Z,2.37
2019-03-19T15:25:59.994Z,2.17
2019-03-19T15:32:04.550Z,1.97
2019-03-19T15:38:09.108Z,1.77
2019-03-19T15:44:13.964Z,1.73
2019-03-19T15:50:18.603Z,1.60
2019-03-19T15:56:23.180Z,1.57
2019-03-19T16:02:27.746Z,1.53
2019-03-19T16:08:32.307Z,1.63
2019-03-19T16:14:36.864Z,2.07
2019-03-19T16:20:41.417Z,2.30
2019-03-19T16:26:45.973Z,2.33
2019-03-19T16:32:50.620Z,4.30
2019-03-19T16:38:55.168Z,6.10
2019-03-19T16:44:59.730Z,8.00
2019-03-19T16:51:04.355Z,2.70
2019-03-19T16:57:08.976Z,3.90
2019-03-19T17:03:13.544Z,2.97
2019-03-19T17:09:18.118Z,3.07
2019-03-19T17:15:22.741Z,3.93
2019-03-19T17:21:27.317Z,4.50
2019-03-19T17:27:32.054Z,2.30
2019-03-19T17:33:36.646Z,2.13
2019-03-19T17:39:41.197Z,2.43
2019-03-19T17:45:45.761Z,2.43
2019-03-19T17:51:50.325Z,2.60
2019-03-19T17:57:54.870Z,1.70
2019-03-19T18:03:59.432Z,1.50
2019-03-19T18:10:05.842Z,1.67
2019-03-19T18:16:10.406Z,2.30
2019-03-19T18:22:14.970Z,2.07
2019-03-19T18:28:19.517Z,2.17
2019-03-19T18:34:24.190Z,1.43
2019-03-19T18:40:28.757Z,1.90
2019-03-19T18:46:33.522Z,2.23
2019-03-19T18:52:38.112Z,1.77
2019-03-19T18:58:42.758Z,1.70
2019-03-19T19:04:47.303Z,1.93
2019-03-19T19:10:51.880Z,1.60
2019-03-19T19:16:56.612Z,1.67
2019-03-19T19:23:02.941Z,1.70
2019-03-19T19:29:07.657Z,1.50
2019-03-19T19:35:12.288Z,2.10
2019-03-19T19:41:16.849Z,2.53
2019-03-19T19:47:21.427Z,2.70
2019-03-19T19:53:25.991Z,2.20
2019-03-19T19:59:30.545Z,2.30
2019-03-19T20:05:35.186Z,2.67
2019-03-19T20:11:39.762Z,2.80
2019-03-19T20:17:44.394Z,3.10
2019-03-19T20:23:49.008Z,3.13
2019-03-19T20:29:53.657Z,2.47
2019-03-19T20:35:58.220Z,2.30
2019-03-19T20:42:02.841Z,2.50
2019-03-19T20:48:07.557Z,2.80
2019-03-19T20:54:12.123Z,3.33
2019-03-19T21:00:18.499Z,2.87
2019-03-19T21:06:23.036Z,2.43
2019-03-19T21:12:27.625Z,3.90
2019-03-19T21:18:32.263Z,2.90
2019-03-19T21:24:36.974Z,2.87
2019-03-19T21:30:41.566Z,2.63
2019-03-19T21:36:46.133Z,2.43
2019-03-19T21:42:50.884Z,3.10
2019-03-19T21:48:55.448Z,4.50
2019-03-19T21:55:00.083Z,2.73
2019-03-19T22:01:04.938Z,3.10
2019-03-19T22:07:09.594Z,2.80
2019-03-19T22:13:14.223Z,2.80
2019-03-19T22:19:18.795Z,2.47
2019-03-19T22:25:23.330Z,3.43
2019-03-19T22:31:27.890Z,3.23
2019-03-19T22:37:32.478Z,3.40
2019-03-19T22:43:37.053Z,2.70
2019-03-19T22:49:41.702Z,2.80
2019-03-19T22:55:46.239Z,3.40
2019-03-19T23:01:50.878Z,2.93
2019-03-19T23:07:55.510Z,3.53
2019-03-19T23:14:00.089Z,2.53
2019-03-19T23:20:08.165Z,2.80
2019-03-19T23:26:12.724Z,2.57
2019-03-19T23:32:17.270Z,2.90
2019-03-19T23:38:21.839Z,2.50
2019-03-19T23:44:26.457Z,2.23
2019-03-19T23:50:31.094Z,2.03
2019-03-19T23:56:35.731Z,2.83
